createdAt,value
2023-04-04T00:00:26.440Z,102684.06
2023-04-04T00:02:50.929Z,102677.03
2023-04-04T00:05:14.703Z,102684.09
2023-04-04T00:07:39.812Z,102688.56
2023-04-04T00:10:03.645Z,102682.44
2023-04-04T00:12:28.615Z,102677.97
2023-04-04T00:14:53.885Z,102671.84
2023-04-04T00:17:17.772Z,102672.75
2023-04-04T00:19:41.516Z,102667.50
2023-04-04T00:22:05.472Z,102673.72
2023-04-04T00:24:30.735Z,102672.88
2023-04-04T00:26:54.402Z,102665.78
2023-04-04T00:29:18.611Z,102670.22
2023-04-04T00:31:42.305Z,102671.06
2023-04-04T00:34:06.135Z,102665.81
2023-04-04T00:36:29.776Z,102669.31
2023-04-04T00:38:53.509Z,102671.91
2023-04-04T00:41:18.654Z,102672.03
2023-04-04T00:43:42.602Z,102663.22
2023-04-04T00:46:06.914Z,102666.69
2023-04-04T00:48:31.390Z,102668.50
2023-04-04T00:50:55.040Z,102669.38
2023-04-04T00:53:18.887Z,102674.66
2023-04-04T00:55:44.012Z,102659.72
2023-04-04T00:58:09.216Z,102661.50
2023-04-04T01:00:34.939Z,102661.47
2023-04-04T01:02:58.765Z,102657.13
2023-04-04T01:05:22.544Z,102650.91
2023-04-04T01:07:46.331Z,102653.56
2023-04-04T01:10:12.366Z,102650.97
2023-04-04T01:12:36.716Z,102654.41
2023-04-04T01:15:02.097Z,102651.84
2023-04-04T01:17:27.230Z,102656.25
2023-04-04T01:20:02.556Z,102648.47
2023-04-04T01:22:33.402Z,102646.63
2023-04-04T01:24:58.645Z,102643.91
2023-04-04T01:27:26.224Z,102643.97
2023-04-04T01:29:54.613Z,102645.72
2023-04-04T01:32:22.184Z,102651.06
2023-04-04T01:34:55.553Z,102643.16
2023-04-04T01:37:29.308Z,102644.03
2023-04-04T01:39:59.189Z,102647.59
2023-04-04T01:42:25.502Z,102637.03
2023-04-04T01:44:56.119Z,102637.13
2023-04-04T01:47:21.999Z,102631.84
2023-04-04T01:49:45.731Z,102638.13
2023-04-04T01:52:10.629Z,102638.06
2023-04-04T01:54:36.129Z,102633.69
2023-04-04T01:56:59.893Z,102641.59
2023-04-04T01:59:25.046Z,102635.47
2023-04-04T02:01:48.909Z,102631.09
2023-04-04T02:04:13.070Z,102632.88
2023-04-04T02:06:36.909Z,102629.31
2023-04-04T02:09:01.007Z,102629.28
2023-04-04T02:11:25.178Z,102618.75
2023-04-04T02:13:48.953Z,102623.16
2023-04-04T02:16:17.044Z,102624.88
2023-04-04T02:18:40.789Z,102625.78
2023-04-04T02:21:04.650Z,102619.66
2023-04-04T02:23:28.337Z,102621.41
2023-04-04T02:25:52.239Z,102618.78
2023-04-04T02:28:15.937Z,102610.00
2023-04-04T02:30:39.882Z,102617.91
2023-04-04T02:33:05.342Z,102616.19
2023-04-04T02:35:29.121Z,102610.00
2023-04-04T02:37:52.796Z,102615.28
2023-04-04T02:40:22.448Z,102614.44
2023-04-04T02:42:46.575Z,102605.63
2023-04-04T02:45:14.460Z,102605.66
2023-04-04T02:47:51.357Z,102598.63
2023-04-04T02:50:19.835Z,102603.94
2023-04-04T02:52:50.501Z,102596.91
2023-04-04T02:55:14.504Z,102601.28
2023-04-04T02:57:40.465Z,102596.03
2023-04-04T03:00:04.632Z,102595.16
2023-04-04T03:02:28.699Z,102603.94
2023-04-04T03:04:52.698Z,102596.03
2023-04-04T03:07:17.938Z,102591.63
2023-04-04T03:09:45.143Z,102585.50
2023-04-04T03:12:09.157Z,102590.81
2023-04-04T03:14:33.113Z,102584.63
2023-04-04T03:16:57.695Z,102584.63
2023-04-04T03:19:21.560Z,102589.03
2023-04-04T03:21:48.720Z,102578.50
2023-04-04T03:24:13.897Z,102587.28
2023-04-04T03:26:37.578Z,102587.28
2023-04-04T03:29:04.350Z,102579.38
2023-04-04T03:31:28.174Z,102581.16
2023-04-04T03:33:52.011Z,102578.53
2023-04-04T03:36:16.389Z,102576.75
2023-04-04T03:38:40.244Z,102573.25
2023-04-04T03:41:05.663Z,102575.88
2023-04-04T03:43:29.585Z,102573.22
2023-04-04T03:45:54.122Z,102564.50
2023-04-04T03:48:17.990Z,102561.88
2023-04-04T03:50:41.951Z,102559.22
2023-04-04T03:53:05.924Z,102555.72
2023-04-04T03:55:29.658Z,102554.84
2023-04-04T03:57:59.023Z,102558.31
2023-04-04T04:00:23.049Z,102555.69
2023-04-04T04:02:46.946Z,102557.44
2023-04-04T04:05:11.160Z,102549.53
2023-04-04T04:07:34.943Z,102551.28
2023-04-04T04:09:59.283Z,102556.56
2023-04-04T04:12:23.746Z,102557.47
2023-04-04T04:14:49.852Z,102547.81
2023-04-04T04:17:13.613Z,102548.69
2023-04-04T04:19:37.256Z,102550.44
2023-04-04T04:22:01.140Z,102546.06
2023-04-04T04:24:24.924Z,102553.09
2023-04-04T04:26:48.654Z,102555.72
2023-04-04T04:29:13.401Z,102553.09
2023-04-04T04:31:39.789Z,102565.41
2023-04-04T04:34:07.626Z,102556.59
2023-04-04T04:36:32.684Z,102555.72
2023-04-04T04:39:19.365Z,102561.00
2023-04-04T04:42:15.219Z,102559.25
2023-04-04T04:44:46.095Z,102558.38
2023-04-04T04:47:12.008Z,102564.50
2023-04-04T04:49:35.667Z,102563.63
2023-04-04T04:52:03.539Z,102565.38
2023-04-04T04:54:27.785Z,102560.97
2023-04-04T04:56:52.339Z,102563.63
2023-04-04T04:59:16.841Z,102568.00
2023-04-04T05:01:41.517Z,102571.53
2023-04-04T05:04:06.949Z,102573.28
2023-04-04T05:06:39.326Z,102569.78
2023-04-04T05:09:05.794Z,102575.06
2023-04-04T05:11:33.497Z,102571.53
2023-04-04T05:13:59.647Z,102574.13
2023-04-04T05:16:25.912Z,102575.88
2023-04-04T05:18:53.795Z,102575.03
2023-04-04T05:21:19.738Z,102572.38
2023-04-04T05:23:45.720Z,102574.13
2023-04-04T05:26:11.049Z,102577.63
2023-04-04T05:28:36.615Z,102582.94
2023-04-04T05:31:02.732Z,102582.03
2023-04-04T05:33:28.556Z,102589.91
2023-04-04T05:36:11.530Z,102582.88
2023-04-04T05:38:40.976Z,102583.75
2023-04-04T05:41:05.245Z,102589.00
2023-04-04T05:43:29.020Z,102584.59
2023-04-04T05:46:04.574Z,102581.94
2023-04-04T05:48:34.659Z,102581.06
2023-04-04T05:50:58.738Z,102583.69
2023-04-04T05:53:36.144Z,102574.88
2023-04-04T05:56:02.317Z,102587.13
2023-04-04T05:58:28.478Z,102584.44
2023-04-04T06:00:54.951Z,102590.53
2023-04-04T06:03:21.205Z,102591.38
2023-04-04T06:05:46.096Z,102590.41
2023-04-04T06:08:09.850Z,102586.47
2023-04-04T06:10:33.569Z,102591.88
2023-04-04T06:12:58.698Z,102577.41
2023-04-04T06:15:22.641Z,102582.16
2023-04-04T06:17:47.608Z,102584.00
2023-04-04T06:20:12.872Z,102582.41
2023-04-04T06:22:37.507Z,102579.53
2023-04-04T06:25:02.161Z,102581.25
2023-04-04T06:27:27.551Z,102582.09
2023-04-04T06:29:53.109Z,102579.03
2023-04-04T06:32:19.190Z,102575.56
2023-04-04T06:34:43.537Z,102585.25
2023-04-04T06:37:08.572Z,102576.81
2023-04-04T06:39:40.045Z,102576.16
2023-04-04T06:42:09.396Z,102586.84
2023-04-04T06:44:33.660Z,102578.22
2023-04-04T06:46:58.863Z,102572.22
2023-04-04T06:49:22.473Z,102573.84
2023-04-04T06:51:46.898Z,102574.03
2023-04-04T06:54:11.594Z,102570.28
2023-04-04T06:56:35.319Z,102570.50
2023-04-04T06:58:59.007Z,102567.97
2023-04-04T07:01:22.797Z,102573.09
2023-04-04T07:03:47.865Z,102570.63
2023-04-04T07:06:11.873Z,102562.59
2023-04-04T07:08:36.894Z,102562.19
2023-04-04T07:11:01.045Z,102563.53
2023-04-04T07:13:24.755Z,102557.34
2023-04-04T07:15:50.315Z,102553.75
2023-04-04T07:18:13.942Z,102558.72
2023-04-04T07:20:39.201Z,102554.53
2023-04-04T07:23:02.926Z,102555.56
2023-04-04T07:25:27.000Z,102547.09
2023-04-04T07:27:55.152Z,102555.50
2023-04-04T07:30:26.551Z,102548.50
2023-04-04T07:32:50.254Z,102551.09
2023-04-04T07:35:13.982Z,102546.59
2023-04-04T07:37:39.625Z,102544.50
2023-04-04T07:40:03.259Z,102541.13
2023-04-04T07:42:27.912Z,102547.19
2023-04-04T07:44:51.624Z,102536.97
2023-04-04T07:47:15.175Z,102531.16
2023-04-04T07:49:39.006Z,102532.63
2023-04-04T07:52:03.357Z,102539.59
2023-04-04T07:54:28.486Z,102529.59
2023-04-04T07:56:52.055Z,102540.22
2023-04-04T07:59:15.795Z,102535.50
2023-04-04T08:01:39.461Z,102530.22
2023-04-04T08:04:03.245Z,102535.63
2023-04-04T08:06:27.313Z,102533.88
2023-04-04T08:08:52.327Z,102533.47
2023-04-04T08:11:17.595Z,102531.19
2023-04-04T08:13:41.728Z,102537.66
2023-04-04T08:16:06.361Z,102537.91
2023-04-04T08:18:30.030Z,102522.31
2023-04-04T08:20:53.620Z,102525.00
2023-04-04T08:23:17.267Z,102525.25
2023-04-04T08:25:40.851Z,102524.56
2023-04-04T08:28:06.264Z,102516.69
2023-04-04T08:30:29.821Z,102517.28
2023-04-04T08:32:53.546Z,102521.78
2023-04-04T08:35:17.533Z,102528.59
2023-04-04T08:37:45.382Z,102517.63
2023-04-04T08:40:10.645Z,102514.75
2023-04-04T08:42:36.792Z,102517.44
2023-04-04T08:45:05.369Z,102514.28
2023-04-04T08:47:32.441Z,102518.81
2023-04-04T08:49:57.415Z,102519.84
2023-04-04T08:52:25.816Z,102514.44
2023-04-04T08:54:51.191Z,102511.22
2023-04-04T08:57:14.966Z,102504.78
2023-04-04T08:59:38.894Z,102504.56
2023-04-04T09:02:18.938Z,102499.69
2023-04-04T09:04:51.336Z,102505.81
2023-04-04T09:07:23.259Z,102504.63
2023-04-04T09:09:48.640Z,102493.34
2023-04-04T09:12:12.774Z,102497.19
2023-04-04T09:14:40.481Z,102492.72
2023-04-04T09:17:05.553Z,102492.69
2023-04-04T09:19:29.466Z,102497.31
2023-04-04T09:21:53.136Z,102490.38
2023-04-04T09:24:17.561Z,102498.88
2023-04-04T09:26:51.567Z,102491.22
2023-04-04T09:29:15.603Z,102495.47
2023-04-04T09:31:39.363Z,102492.13
2023-04-04T09:34:04.597Z,102494.66
2023-04-04T09:36:28.236Z,102492.16
2023-04-04T09:38:55.761Z,102488.09
2023-04-04T09:41:20.926Z,102491.53
2023-04-04T09:43:47.376Z,102494.94
2023-04-04T09:46:11.847Z,102489.84
2023-04-04T09:48:37.137Z,102491.81
2023-04-04T09:51:05.491Z,102489.78
2023-04-04T09:53:29.351Z,102483.59
2023-04-04T09:55:54.625Z,102478.16
2023-04-04T09:58:20.429Z,102473.78
2023-04-04T10:00:48.607Z,102466.38
2023-04-04T10:03:15.725Z,102471.75
2023-04-04T10:05:39.474Z,102465.22
2023-04-04T10:08:16.922Z,102464.09
2023-04-04T10:10:58.907Z,102471.00
2023-04-04T10:13:32.484Z,102464.44
2023-04-04T10:15:57.708Z,102461.34
2023-04-04T10:18:23.401Z,102465.81
2023-04-04T10:20:49.035Z,102464.50
2023-04-04T10:23:16.610Z,102465.22
2023-04-04T10:25:40.270Z,102463.94
2023-04-04T10:28:04.022Z,102461.34
2023-04-04T10:30:27.668Z,102462.19
2023-04-04T10:33:03.025Z,102468.88
2023-04-04T10:35:28.465Z,102462.34
2023-04-04T10:38:02.152Z,102454.88
2023-04-04T10:40:34.671Z,102446.50
2023-04-04T10:42:59.828Z,102453.03
2023-04-04T10:45:23.598Z,102453.81
2023-04-04T10:47:47.394Z,102446.25
2023-04-04T10:50:12.733Z,102449.56
2023-04-04T10:52:38.333Z,102440.19
2023-04-04T10:55:06.349Z,102433.22
2023-04-04T10:57:32.341Z,102434.16
2023-04-04T11:00:00.616Z,102433.28
2023-04-04T11:02:50.044Z,102430.72
2023-04-04T11:05:14.754Z,102429.75
2023-04-04T11:07:40.365Z,102427.88
2023-04-04T11:10:14.810Z,102426.47
2023-04-04T11:12:46.187Z,102422.50
2023-04-04T11:15:12.659Z,102413.50
2023-04-04T11:17:52.919Z,102411.13
2023-04-04T11:20:18.656Z,102402.97
2023-04-04T11:22:42.852Z,102404.97
2023-04-04T11:25:36.388Z,102400.38
2023-04-04T11:28:07.204Z,102394.72
2023-04-04T11:30:31.050Z,102385.09
2023-04-04T11:35:23.900Z,102388.84
2023-04-04T11:38:02.385Z,102385.50
2023-04-04T11:40:37.437Z,102381.50
2023-04-04T11:43:04.310Z,102377.41
2023-04-04T11:45:28.547Z,102369.72
2023-04-04T11:47:52.756Z,102377.22
2023-04-04T11:50:17.653Z,102371.00
2023-04-04T11:52:43.241Z,102362.63
2023-04-04T11:55:17.402Z,102364.81
2023-04-04T11:57:43.442Z,102362.22
2023-04-04T12:00:12.312Z,102345.44
2023-04-04T12:02:37.993Z,102347.44
2023-04-04T12:05:02.885Z,102356.25
2023-04-04T12:07:27.075Z,102350.25
2023-04-04T12:09:50.786Z,102350.63
2023-04-04T12:12:16.517Z,102348.50
2023-04-04T12:14:41.410Z,102341.81
2023-04-04T12:17:06.717Z,102340.38
2023-04-04T12:19:31.752Z,102338.31
2023-04-04T12:21:56.091Z,102329.44
2023-04-04T12:24:20.044Z,102334.75
2023-04-04T12:26:47.208Z,102330.00
2023-04-04T12:29:12.925Z,102329.19
2023-04-04T12:31:37.959Z,102327.69
2023-04-04T12:34:03.152Z,102329.19
2023-04-04T12:36:27.378Z,102327.03
2023-04-04T12:39:02.345Z,102316.09
2023-04-04T12:41:26.917Z,102318.13
2023-04-04T12:43:51.170Z,102310.38
2023-04-04T12:46:15.595Z,102310.06
2023-04-04T12:48:40.056Z,102302.97
2023-04-04T12:51:08.639Z,102301.38
2023-04-04T12:53:33.158Z,102288.28
2023-04-04T12:56:01.385Z,102286.75
2023-04-04T12:58:26.794Z,102273.84
2023-04-04T13:00:52.751Z,102280.84
2023-04-04T13:03:17.895Z,102278.88
2023-04-04T13:05:42.855Z,102280.19
2023-04-04T13:08:12.090Z,102271.22
2023-04-04T13:11:04.769Z,102270.88
2023-04-04T13:13:37.111Z,102273.66
2023-04-04T13:16:01.346Z,102268.03
2023-04-04T13:18:27.793Z,102265.25
2023-04-04T13:20:52.074Z,102258.72
2023-04-04T13:23:17.716Z,102260.47
2023-04-04T13:25:42.168Z,102251.91
2023-04-04T13:28:06.077Z,102250.09
2023-04-04T13:30:29.931Z,102254.41
2023-04-04T13:32:53.586Z,102249.31
2023-04-04T13:35:17.464Z,102242.81
2023-04-04T13:37:41.108Z,102244.19
2023-04-04T13:40:07.762Z,102241.44
2023-04-04T13:42:31.770Z,102238.25
2023-04-04T13:44:55.608Z,102238.88
2023-04-04T13:47:19.232Z,102235.09
2023-04-04T13:49:43.067Z,102234.22
2023-04-04T13:52:06.765Z,102235.38
2023-04-04T13:54:30.580Z,102231.38
2023-04-04T13:56:56.565Z,102226.97
2023-04-04T13:59:20.322Z,102222.13
2023-04-04T14:01:44.343Z,102223.41
2023-04-04T14:04:22.688Z,102219.34
2023-04-04T14:06:49.430Z,102215.41
2023-04-04T14:09:13.052Z,102204.44
2023-04-04T14:11:36.721Z,102208.84
2023-04-04T14:14:01.792Z,102206.78
2023-04-04T14:16:25.542Z,102201.16
2023-04-04T14:18:49.964Z,102201.00
2023-04-04T14:21:13.649Z,102190.66
2023-04-04T14:23:37.293Z,102204.09
2023-04-04T14:26:01.218Z,102193.13
2023-04-04T14:28:25.073Z,102193.59
2023-04-04T14:30:51.788Z,102193.06
2023-04-04T14:33:15.384Z,102199.06
2023-04-04T14:35:39.401Z,102192.66
2023-04-04T14:38:03.236Z,102191.06
2023-04-04T14:40:27.380Z,102189.97
2023-04-04T14:42:51.157Z,102190.94
2023-04-04T14:45:16.073Z,102191.63
2023-04-04T14:47:41.370Z,102186.38
2023-04-04T14:50:05.616Z,102187.44
2023-04-04T14:52:30.405Z,102182.25
2023-04-04T14:54:54.158Z,102184.44
2023-04-04T14:57:18.667Z,102177.94
2023-04-04T14:59:42.324Z,102185.09
2023-04-04T15:02:06.229Z,102180.88
2023-04-04T15:04:31.564Z,102173.34
2023-04-04T15:06:56.854Z,102177.66
2023-04-04T15:09:20.570Z,102168.47
2023-04-04T15:11:44.214Z,102172.50
2023-04-04T15:14:07.912Z,102173.50
2023-04-04T15:16:33.328Z,102166.41
2023-04-04T15:18:57.310Z,102167.50
2023-04-04T15:21:22.472Z,102168.91
2023-04-04T15:23:46.267Z,102164.84
2023-04-04T15:26:09.911Z,102166.06
2023-04-04T15:28:33.768Z,102172.31
2023-04-04T15:30:57.754Z,102160.09
2023-04-04T15:33:21.627Z,102162.34
2023-04-04T15:35:45.379Z,102163.53
2023-04-04T15:38:10.574Z,102167.13
2023-04-04T15:40:34.217Z,102156.66
2023-04-04T15:42:58.293Z,102161.69
2023-04-04T15:45:21.936Z,102160.31
2023-04-04T15:47:45.792Z,102160.31
2023-04-04T15:50:11.118Z,102150.97
2023-04-04T15:52:34.860Z,102150.72
2023-04-04T15:54:59.899Z,102151.66
2023-04-04T15:57:23.595Z,102153.41
2023-04-04T15:59:48.080Z,102145.94
2023-04-04T16:02:11.775Z,102149.16
2023-04-04T16:04:35.525Z,102147.84
2023-04-04T16:06:59.239Z,102152.50
2023-04-04T16:09:22.974Z,102153.34
2023-04-04T16:11:48.150Z,102154.69
2023-04-04T16:14:12.809Z,102147.22
2023-04-04T16:16:36.892Z,102137.22
2023-04-04T16:19:00.534Z,102141.53
2023-04-04T16:21:24.321Z,102144.44
2023-04-04T16:23:47.950Z,102141.53
2023-04-04T16:26:12.045Z,102139.13
2023-04-04T16:28:37.344Z,102141.44
2023-04-04T16:31:01.362Z,102144.41
2023-04-04T16:33:25.122Z,102137.88
2023-04-04T16:35:49.679Z,102141.22
2023-04-04T16:38:13.286Z,102135.56
2023-04-04T16:40:37.352Z,102131.19
2023-04-04T16:43:01.058Z,102127.13
2023-04-04T16:45:26.201Z,102136.66
2023-04-04T16:47:49.948Z,102132.13
2023-04-04T16:50:13.984Z,102135.91
2023-04-04T16:52:37.657Z,102134.34
2023-04-04T16:55:01.402Z,102132.19
2023-04-04T16:57:25.287Z,102130.47
2023-04-04T16:59:49.067Z,102123.47
2023-04-04T17:02:14.258Z,102121.81
2023-04-04T17:04:41.704Z,102121.81
2023-04-04T17:07:06.324Z,102120.13
2023-04-04T17:09:30.005Z,102120.84
2023-04-04T17:11:53.752Z,102116.69
2023-04-04T17:14:18.369Z,102111.88
2023-04-04T17:16:43.189Z,102113.69
2023-04-04T17:19:08.311Z,102120.09
2023-04-04T17:21:33.493Z,102114.06
2023-04-04T17:23:57.258Z,102116.25
2023-04-04T17:26:21.179Z,102119.41
2023-04-04T17:28:45.707Z,102119.28
2023-04-04T17:31:09.374Z,102118.97
2023-04-04T17:33:33.137Z,102120.66
2023-04-04T17:35:58.197Z,102119.63
2023-04-04T17:38:22.055Z,102117.28
2023-04-04T17:40:45.666Z,102112.81
2023-04-04T17:43:09.370Z,102116.88
2023-04-04T17:45:33.054Z,102113.25
2023-04-04T17:47:56.766Z,102108.97
2023-04-04T17:50:20.634Z,102113.16
2023-04-04T17:52:45.712Z,102113.38
2023-04-04T17:55:11.430Z,102112.78
2023-04-04T17:57:35.679Z,102120.38
2023-04-04T17:59:59.251Z,102121.59
2023-04-04T18:02:22.989Z,102118.53
2023-04-04T18:04:47.219Z,102117.91
2023-04-04T18:07:11.173Z,102120.13
2023-04-04T18:09:36.423Z,102115.31
2023-04-04T18:12:01.766Z,102111.19
2023-04-04T18:14:25.473Z,102114.22
2023-04-04T18:16:49.144Z,102119.09
2023-04-04T18:19:13.326Z,102124.81
2023-04-04T18:21:37.089Z,102127.09
2023-04-04T18:24:00.780Z,102125.59
2023-04-04T18:26:26.221Z,102125.13
2023-04-04T18:28:49.918Z,102120.19
2023-04-04T18:31:14.332Z,102120.53
2023-04-04T18:33:38.006Z,102131.47
2023-04-04T18:36:01.866Z,102129.16
2023-04-04T18:38:25.998Z,102126.69
2023-04-04T18:40:49.755Z,102130.66
2023-04-04T18:43:14.854Z,102129.03
2023-04-04T18:45:40.645Z,102136.47
2023-04-04T18:48:04.508Z,102131.50
2023-04-04T18:50:28.707Z,102138.06
2023-04-04T18:52:52.382Z,102139.31
2023-04-04T18:55:16.617Z,102136.88
2023-04-04T18:57:40.254Z,102143.34
2023-04-04T19:00:08.218Z,102139.19
2023-04-04T19:02:34.141Z,102135.81
2023-04-04T19:04:59.767Z,102138.81
2023-04-04T19:07:27.921Z,102139.28
2023-04-04T19:09:52.568Z,102140.16
2023-04-04T19:12:16.149Z,102137.78
2023-04-04T19:14:39.792Z,102139.69
2023-04-04T19:17:04.888Z,102146.97
2023-04-04T19:19:29.017Z,102140.06
2023-04-04T19:21:52.670Z,102134.91
2023-04-04T19:24:16.348Z,102130.81
2023-04-04T19:26:40.028Z,102140.72
2023-04-04T19:29:03.692Z,102138.41
2023-04-04T19:31:30.348Z,102141.97
2023-04-04T19:33:55.727Z,102132.47
2023-04-04T19:36:19.460Z,102136.13
2023-04-04T19:38:44.366Z,102132.97
2023-04-04T19:41:13.784Z,102135.94
2023-04-04T19:43:38.663Z,102135.94
2023-04-04T19:46:10.176Z,102135.31
2023-04-04T19:48:44.268Z,102138.63
2023-04-04T19:51:11.350Z,102133.38
2023-04-04T19:53:35.051Z,102138.13
2023-04-04T19:55:59.077Z,102138.19
2023-04-04T19:58:24.279Z,102141.81
2023-04-04T20:00:47.977Z,102150.72
2023-04-04T20:03:30.800Z,102149.25
2023-04-04T20:06:10.066Z,102142.44
2023-04-04T20:08:48.826Z,102145.34
2023-04-04T20:11:14.684Z,102144.69
2023-04-04T20:13:39.756Z,102142.03
2023-04-04T20:16:09.697Z,102149.31
2023-04-04T20:18:35.611Z,102144.25
2023-04-04T20:21:10.904Z,102141.66
2023-04-04T20:23:44.400Z,102141.78
2023-04-04T20:26:09.620Z,102139.25
2023-04-04T20:28:33.292Z,102140.44
2023-04-04T20:31:03.725Z,102137.03
2023-04-04T20:33:36.304Z,102141.56
2023-04-04T20:36:09.619Z,102149.81
2023-04-04T20:38:33.383Z,102142.81
2023-04-04T20:40:57.063Z,102142.09
2023-04-04T20:43:20.817Z,102139.53
2023-04-04T20:45:46.841Z,102144.06
2023-04-04T20:48:36.202Z,102137.19
2023-04-04T20:50:59.912Z,102139.22
2023-04-04T20:53:27.487Z,102139.31
2023-04-04T20:55:51.521Z,102141.19
2023-04-04T20:58:28.818Z,102131.66
2023-04-04T21:00:52.792Z,102148.50
2023-04-04T21:03:37.346Z,102146.88
2023-04-04T21:06:10.704Z,102153.25
2023-04-04T21:08:43.585Z,102149.75
2023-04-04T21:11:07.956Z,102151.56
2023-04-04T21:13:36.752Z,102150.75
2023-04-04T21:16:02.651Z,102145.50
2023-04-04T21:18:31.718Z,102151.81
2023-04-04T21:21:18.817Z,102150.16
2023-04-04T21:23:49.989Z,102144.16
2023-04-04T21:26:32.034Z,102147.75
2023-04-04T21:28:56.809Z,102144.28
2023-04-04T21:31:24.361Z,102140.16
2023-04-04T21:33:50.446Z,102137.56
2023-04-04T21:36:27.486Z,102149.06
2023-04-04T21:38:53.966Z,102145.66
2023-04-04T21:41:25.881Z,102150.25
2023-04-04T21:43:49.607Z,102142.50
2023-04-04T21:46:13.329Z,102148.72
2023-04-04T21:48:37.098Z,102142.72
2023-04-04T21:51:00.780Z,102134.78
2023-04-04T21:53:24.522Z,102138.34
2023-04-04T21:55:49.691Z,102134.84
2023-04-04T21:58:14.380Z,102135.75
2023-04-04T22:00:38.038Z,102134.13
2023-04-04T22:03:01.883Z,102137.75
2023-04-04T22:05:38.137Z,102142.34
2023-04-04T22:08:02.648Z,102130.91
2023-04-04T22:10:27.179Z,102128.38
2023-04-04T22:12:52.300Z,102130.03
2023-04-04T22:15:19.108Z,102125.72
2023-04-04T22:17:42.826Z,102119.63
2023-04-04T22:20:11.201Z,102132.06
2023-04-04T22:22:37.068Z,102121.66
2023-04-04T22:25:05.046Z,102124.28
2023-04-04T22:27:28.780Z,102124.34
2023-04-04T22:29:53.952Z,102127.06
2023-04-04T22:32:17.676Z,102120.97
2023-04-04T22:34:41.327Z,102118.41
2023-04-04T22:37:05.551Z,102123.69
2023-04-04T22:39:30.823Z,102127.34
2023-04-04T22:41:54.573Z,102121.28
2023-04-04T22:44:18.257Z,102121.31
2023-04-04T22:46:43.685Z,102117.72
2023-04-04T22:49:08.837Z,102123.00
2023-04-04T22:51:34.935Z,102120.44
2023-04-04T22:53:58.899Z,102120.44
2023-04-04T22:56:22.641Z,102110.78
2023-04-04T22:58:46.356Z,102110.91
2023-04-04T23:01:10.130Z,102112.63
2023-04-04T23:03:35.248Z,102095.16
2023-04-04T23:05:59.003Z,102104.22
2023-04-04T23:08:22.691Z,102103.94
2023-04-04T23:10:46.550Z,102097.88
2023-04-04T23:13:10.210Z,102101.66
2023-04-04T23:15:37.644Z,102109.50
2023-04-04T23:18:01.540Z,102106.03
2023-04-04T23:20:28.002Z,102104.38
2023-04-04T23:22:51.982Z,102102.72
2023-04-04T23:25:15.847Z,102106.47
2023-04-04T23:27:40.209Z,102096.66
2023-04-04T23:30:04.922Z,102095.81
2023-04-04T23:32:29.046Z,102088.81
2023-04-04T23:34:52.808Z,102089.69
2023-04-04T23:37:18.110Z,102079.13
2023-04-04T23:39:41.961Z,102079.09
2023-04-04T23:42:05.787Z,102076.59
2023-04-04T23:44:29.478Z,102080.94
2023-04-04T23:46:53.566Z,102077.47
2023-04-04T23:49:18.034Z,102081.94
2023-04-04T23:51:42.309Z,102081.97
2023-04-04T23:54:08.087Z,102079.47
2023-04-04T23:56:31.816Z,102073.31
2023-04-04T23:58:55.596Z,102074.09
